createdAt,value
2022-09-17T00:02:59.666Z,27
2022-09-17T00:08:18.075Z,27
2022-09-17T00:13:36.257Z,27
2022-09-17T00:18:54.425Z,27
2022-09-17T00:24:13.088Z,27
2022-09-17T00:29:31.262Z,27
2022-09-17T00:34:49.988Z,27
2022-09-17T00:40:08.819Z,27.1
2022-09-17T00:45:27.112Z,27.1
2022-09-17T00:50:45.548Z,27.1
2022-09-17T00:56:04.215Z,27.1
2022-09-17T01:01:22.623Z,27.1
2022-09-17T01:06:40.854Z,27.1
2022-09-17T01:11:59.499Z,27.1
2022-09-17T01:17:17.692Z,27.1
2022-09-17T01:22:36.133Z,27.1
2022-09-17T01:27:54.794Z,27.1
2022-09-17T01:33:13.268Z,27.1
2022-09-17T01:38:31.434Z,27.2
2022-09-17T01:43:50.075Z,27.2
2022-09-17T01:49:08.278Z,27.2
2022-09-17T01:54:26.435Z,27.2
2022-09-17T01:59:45.366Z,27.1
2022-09-17T02:05:03.563Z,27.1
2022-09-17T02:10:22.289Z,27.1
2022-09-17T02:15:40.932Z,27.2
2022-09-17T02:20:59.127Z,27.2
2022-09-17T02:26:17.296Z,27.2
2022-09-17T02:31:36.393Z,27.2
2022-09-17T02:36:54.446Z,27.2
2022-09-17T02:42:12.604Z,27.2
2022-09-17T02:47:31.266Z,27.2
2022-09-17T02:52:49.189Z,27.2
2022-09-17T02:58:07.911Z,27.2
2022-09-17T03:03:26.558Z,27.2
2022-09-17T03:08:45.030Z,27.2
2022-09-17T03:14:03.190Z,27.2
2022-09-17T03:19:22.099Z,27.2
2022-09-17T03:24:40.279Z,27.2
2022-09-17T03:29:58.994Z,27.2
2022-09-17T03:35:17.662Z,27.2
2022-09-17T03:40:35.705Z,27.2
2022-09-17T03:45:54.192Z,27.2
2022-09-17T03:51:12.574Z,27.2
2022-09-17T03:56:30.768Z,27.2
2022-09-17T04:01:49.512Z,27.2
2022-09-17T04:07:08.343Z,27.2
2022-09-17T04:12:26.534Z,27.2
2022-09-17T04:17:45.249Z,27.2
2022-09-17T04:23:04.194Z,27.2
2022-09-17T04:28:22.382Z,27.2
2022-09-17T04:33:40.538Z,27.2
2022-09-17T04:38:58.630Z,27.2
2022-09-17T04:44:16.549Z,27.2
2022-09-17T04:49:34.984Z,27.2
2022-09-17T04:54:53.360Z,27.2
2022-09-17T05:00:11.594Z,27.2
2022-09-17T05:05:30.003Z,27.2
2022-09-17T05:10:48.922Z,27.2
2022-09-17T05:16:07.511Z,27.2
2022-09-17T05:21:25.997Z,27.1
2022-09-17T05:26:44.389Z,27.2
2022-09-17T05:32:02.580Z,27.1
2022-09-17T05:37:21.027Z,27.2
2022-09-17T05:42:39.674Z,27.1
2022-09-17T05:47:57.888Z,27.1
2022-09-17T05:53:16.034Z,27.2
2022-09-17T05:58:34.708Z,27.2
2022-09-17T06:03:53.171Z,27.2
2022-09-17T06:09:11.899Z,27.1
2022-09-17T06:14:30.551Z,27.1
2022-09-17T06:19:48.748Z,27.1
2022-09-17T06:25:06.904Z,27.1
2022-09-17T06:30:25.285Z,27
2022-09-17T06:35:43.216Z,27
2022-09-17T06:41:01.932Z,26.9
2022-09-17T06:46:20.767Z,27
2022-09-17T06:51:38.898Z,27
2022-09-17T06:56:57.611Z,27
2022-09-17T07:02:16.168Z,27
2022-09-17T07:07:34.778Z,27
2022-09-17T07:12:52.923Z,27
2022-09-17T07:18:11.303Z,27.1
2022-09-17T07:23:29.487Z,27.1
2022-09-17T07:28:47.934Z,27
2022-09-17T07:34:06.574Z,27.1
2022-09-17T07:39:24.775Z,27.1
2022-09-17T07:44:43.485Z,27.1
2022-09-17T07:50:02.407Z,27.2
2022-09-17T07:55:20.871Z,27.2
2022-09-17T08:00:39.600Z,27.2
2022-09-17T08:05:58.246Z,27.2
2022-09-17T08:11:44.980Z,27.3
2022-09-17T08:17:13.983Z,27.3
2022-09-17T08:22:32.342Z,27.3
2022-09-17T08:27:50.525Z,27.3
2022-09-17T08:33:08.687Z,27.3
2022-09-17T08:38:27.357Z,27.3
2022-09-17T08:43:45.822Z,27.2
2022-09-17T08:49:03.980Z,27.2
2022-09-17T08:54:22.662Z,27.2
2022-09-17T08:59:41.139Z,27.2
2022-09-17T09:04:59.590Z,27.2
2022-09-17T09:10:17.665Z,27.2
2022-09-17T09:15:36.163Z,27.1
2022-09-17T09:20:54.890Z,27.1
2022-09-17T09:26:13.275Z,27.1
2022-09-17T09:31:31.263Z,27.1
2022-09-17T09:36:49.430Z,27.1
2022-09-17T09:42:08.085Z,27.1
2022-09-17T09:47:26.305Z,27.1
2022-09-17T09:52:44.745Z,27
2022-09-17T09:58:03.389Z,27
2022-09-17T10:03:21.710Z,27
2022-09-17T10:08:40.436Z,27
2022-09-17T10:13:58.584Z,27
2022-09-17T10:19:17.203Z,27
2022-09-17T10:24:35.638Z,26.8
2022-09-17T10:29:54.009Z,26.7
2022-09-17T10:35:12.205Z,26.5
2022-09-17T10:40:30.712Z,26.4
2022-09-17T10:45:49.189Z,26.2
2022-09-17T10:51:07.659Z,26.1
2022-09-17T10:56:26.105Z,26.2
2022-09-17T11:01:45.015Z,26.3
2022-09-17T11:07:03.437Z,26.3
2022-09-17T11:12:21.900Z,26.3
2022-09-17T11:17:40.521Z,26.4
2022-09-17T11:22:59.002Z,26.4
2022-09-17T11:28:17.607Z,26.4
2022-09-17T11:33:35.985Z,26.4
2022-09-17T11:38:54.465Z,26.4
2022-09-17T11:44:13.185Z,26.5
2022-09-17T11:49:31.898Z,26.5
2022-09-17T11:54:50.379Z,26.4
2022-09-17T12:00:09.101Z,26.4
2022-09-17T12:05:28.029Z,26.4
2022-09-17T12:10:46.233Z,26.5
2022-09-17T12:16:05.069Z,26.5
2022-09-17T12:21:23.449Z,26.5
2022-09-17T12:26:42.211Z,26.5
2022-09-17T12:32:00.651Z,26.4
2022-09-17T12:37:19.297Z,26.4
2022-09-17T12:42:37.776Z,26.4
2022-09-17T12:47:55.934Z,26.4
2022-09-17T12:53:14.313Z,26.4
2022-09-17T12:58:32.235Z,26.3
2022-09-17T13:03:50.690Z,26.2
2022-09-17T13:09:09.393Z,26.2
2022-09-17T13:14:27.617Z,26.2
2022-09-17T13:19:46.342Z,26.1
2022-09-17T13:25:05.266Z,25.9
2022-09-17T13:30:23.471Z,25.8
2022-09-17T13:35:41.911Z,25.8
2022-09-17T13:41:00.277Z,25.8
2022-09-17T13:46:18.581Z,26
2022-09-17T13:51:37.108Z,26
2022-09-17T13:56:56.035Z,25.9
2022-09-17T14:02:14.274Z,26
2022-09-17T14:07:32.723Z,26
2022-09-17T14:12:51.368Z,26.1
2022-09-17T14:18:10.117Z,26.1
2022-09-17T14:23:28.839Z,26
2022-09-17T14:28:47.307Z,26.1
2022-09-17T14:34:05.979Z,26.1
2022-09-17T14:39:24.140Z,26
2022-09-17T14:44:42.782Z,26
2022-09-17T14:50:01.000Z,25.9
2022-09-17T14:55:19.456Z,25.9
2022-09-17T15:00:38.379Z,25.9
2022-09-17T15:05:56.860Z,26
2022-09-17T15:11:15.308Z,26
2022-09-17T15:16:34.204Z,25.9
2022-09-17T15:21:52.564Z,26
2022-09-17T15:27:10.729Z,26
2022-09-17T15:32:29.386Z,26
2022-09-17T15:38:22.093Z,26
2022-09-17T15:43:41.909Z,26
2022-09-17T15:49:00.688Z,26
2022-09-17T15:54:19.230Z,26.1
2022-09-17T15:59:37.151Z,26
2022-09-17T16:04:55.762Z,26.1
2022-09-17T16:10:13.680Z,26
2022-09-17T16:15:32.134Z,26
2022-09-17T16:20:50.810Z,26
2022-09-17T16:26:09.009Z,26
2022-09-17T16:31:27.601Z,26
2022-09-17T16:36:46.022Z,26
2022-09-17T16:42:04.494Z,26
2022-09-17T16:47:22.997Z,26
2022-09-17T16:52:41.660Z,26
2022-09-17T16:57:59.887Z,26
2022-09-17T17:03:18.499Z,26
2022-09-17T17:08:37.547Z,26
2022-09-17T17:13:55.758Z,26
2022-09-17T17:19:14.469Z,26.1
2022-09-17T17:24:33.142Z,26.1
2022-09-17T17:29:51.616Z,26.1
2022-09-17T17:35:09.776Z,26.1
2022-09-17T17:40:28.390Z,26.1
2022-09-17T17:45:47.336Z,26.1
2022-09-17T17:51:05.509Z,26.1
2022-09-17T17:56:23.852Z,26.1
2022-09-17T18:01:42.025Z,26.1
2022-09-17T18:07:00.804Z,26.1
2022-09-17T18:12:19.747Z,26
2022-09-17T18:17:44.916Z,26
2022-09-17T18:23:03.081Z,26.1
2022-09-17T18:28:21.726Z,26
2022-09-17T18:33:39.917Z,26
2022-09-17T18:39:24.083Z,26
2022-09-17T18:45:15.614Z,26
2022-09-17T18:50:33.547Z,26
2022-09-17T18:55:52.279Z,26
2022-09-17T19:01:11.175Z,26
2022-09-17T19:06:29.800Z,26
2022-09-17T19:11:48.519Z,26
2022-09-17T19:17:07.199Z,26
2022-09-17T19:22:25.390Z,26
2022-09-17T19:27:43.834Z,26
2022-09-17T19:33:02.501Z,26
2022-09-17T19:38:20.432Z,26
2022-09-17T19:43:38.876Z,26
2022-09-17T19:48:56.955Z,26
2022-09-17T19:54:14.917Z,26
2022-09-17T19:59:33.631Z,26
2022-09-17T20:04:52.312Z,26
2022-09-17T20:10:10.506Z,26.1
2022-09-17T20:15:29.230Z,26.1
2022-09-17T20:20:48.159Z,26.1
2022-09-17T20:26:06.077Z,26.1
2022-09-17T20:31:24.565Z,26.1
2022-09-17T20:36:43.578Z,26.1
2022-09-17T20:42:01.785Z,26.1
2022-09-17T20:47:20.218Z,26.2
2022-09-17T20:52:38.604Z,26.2
2022-09-17T20:57:57.069Z,26.2
2022-09-17T21:03:15.512Z,26.2
2022-09-17T21:08:33.873Z,26.2
2022-09-17T21:13:52.071Z,26.3
2022-09-17T21:19:10.797Z,26.3
2022-09-17T21:24:29.197Z,26.3
2022-09-17T21:29:47.398Z,26.3
2022-09-17T21:35:05.563Z,26.3
2022-09-17T21:40:24.446Z,26.3
2022-09-17T21:45:42.487Z,26.3
2022-09-17T21:51:01.204Z,26.3
2022-09-17T21:56:19.585Z,26.3
2022-09-17T22:01:38.135Z,26.3
2022-09-17T22:06:56.323Z,26.3
2022-09-17T22:12:14.699Z,26.3
2022-09-17T22:17:33.171Z,26.3
2022-09-17T22:22:51.617Z,26.3
2022-09-17T22:28:21.933Z,26.3
2022-09-17T22:33:40.175Z,26.3
2022-09-17T22:38:58.587Z,26.3
2022-09-17T22:44:16.792Z,26.3
2022-09-17T22:49:35.279Z,26.4
2022-09-17T22:54:54.001Z,26.4
2022-09-17T23:00:12.389Z,26.4
2022-09-17T23:05:30.584Z,26.4
2022-09-17T23:10:49.310Z,26.4
2022-09-17T23:16:07.850Z,26.4
2022-09-17T23:21:26.449Z,26.4
2022-09-17T23:26:44.887Z,26.4
2022-09-17T23:32:03.255Z,26.4
2022-09-17T23:37:21.458Z,26.4
2022-09-17T23:42:39.889Z,26.4
2022-09-17T23:47:58.530Z,26.4
2022-09-17T23:53:16.456Z,26.4
2022-09-17T23:58:34.891Z,26.4
